createdAt,value
2018-03-30T15:31:52.207Z,6.27
2018-03-30T15:34:18.463Z,5.97
2018-03-30T15:36:55.615Z,6.17
2018-03-30T15:39:21.832Z,7.10
2018-03-30T15:41:50.919Z,6.90
2018-03-30T15:44:17.227Z,7.80
2018-03-30T15:46:43.490Z,7.13
2018-03-30T15:49:09.818Z,9.37
2018-03-30T15:51:36.068Z,10.90
2018-03-30T15:54:01.996Z,11.17
2018-03-30T15:56:29.078Z,8.50
2018-03-30T15:58:55.257Z,9.93
2018-03-30T16:01:21.480Z,11.00
2018-03-30T16:03:47.735Z,9.10
2018-03-30T16:06:13.898Z,8.23
2018-03-30T16:08:40.116Z,9.00
2018-03-30T16:11:19.171Z,8.57
2018-03-30T16:13:45.345Z,8.20
2018-03-30T16:16:11.554Z,8.67
2018-03-30T16:18:49.636Z,8.17
2018-03-30T16:21:15.575Z,9.00
2018-03-30T16:23:41.473Z,8.10
2018-03-30T16:26:07.504Z,8.63
2018-03-30T16:28:33.433Z,8.50
2018-03-30T16:30:59.351Z,8.50
2018-03-30T16:33:25.247Z,7.67
2018-03-30T16:35:51.149Z,8.40
2018-03-30T16:38:17.082Z,7.70
2018-03-30T16:40:43.016Z,8.70
2018-03-30T16:43:08.876Z,11.57
2018-03-30T16:45:34.734Z,8.57
2018-03-30T16:48:00.634Z,8.80
2018-03-30T16:50:26.588Z,11.00
2018-03-30T16:52:52.459Z,9.33
2018-03-30T16:55:18.435Z,9.27
2018-03-30T16:57:44.311Z,9.97
2018-03-30T17:00:10.252Z,8.17
2018-03-30T17:02:36.126Z,8.33
2018-03-30T17:05:02.431Z,10.00
2018-03-30T17:07:28.310Z,10.30
2018-03-30T17:09:54.218Z,9.10
2018-03-30T17:12:20.210Z,9.20
2018-03-30T17:14:46.073Z,10.20
2018-03-30T17:17:11.946Z,10.17
2018-03-30T17:19:37.812Z,14.00
2018-03-30T17:22:03.776Z,9.80
2018-03-30T17:24:29.599Z,9.87
2018-03-30T17:26:55.487Z,10.83
2018-03-30T17:29:21.370Z,12.80
2018-03-30T17:31:47.313Z,9.23
2018-03-30T17:34:13.252Z,8.30
2018-03-30T17:36:39.125Z,10.53
2018-03-30T17:39:04.978Z,9.33
2018-03-30T17:41:30.920Z,9.20
2018-03-30T17:43:56.808Z,9.43
2018-03-30T17:46:22.668Z,10.77
2018-03-30T17:48:48.584Z,9.17
2018-03-30T17:51:14.569Z,11.80
2018-03-30T17:53:40.452Z,8.23
2018-03-30T17:56:06.390Z,8.70
2018-03-30T17:58:32.347Z,8.27
2018-03-30T18:00:58.362Z,8.27
2018-03-30T18:03:24.318Z,6.80
2018-03-30T18:05:50.277Z,8.13
2018-03-30T18:08:16.254Z,7.07
2018-03-30T18:10:42.237Z,6.83
2018-03-30T18:13:08.164Z,10.90
2018-03-30T18:15:34.090Z,8.43
2018-03-30T18:18:00.046Z,9.13
2018-03-30T18:20:26.056Z,7.33
2018-03-30T18:22:51.981Z,8.57
2018-03-30T18:25:17.892Z,6.80
2018-03-30T18:27:43.818Z,7.73
2018-03-30T18:30:09.746Z,4.97
2018-03-30T18:32:35.665Z,5.53
2018-03-30T18:35:01.804Z,7.50
2018-03-30T18:37:27.753Z,7.67
2018-03-30T18:39:53.705Z,7.73
2018-03-30T18:42:19.651Z,6.33
2018-03-30T18:44:45.586Z,6.07
2018-03-30T18:47:11.471Z,6.67
2018-03-30T18:49:37.423Z,6.13
2018-03-30T18:52:03.365Z,6.07
2018-03-30T18:54:29.288Z,5.90
2018-03-30T18:56:55.176Z,8.50
2018-03-30T18:59:21.194Z,7.80
2018-03-30T19:01:47.117Z,7.10
2018-03-30T19:04:13.144Z,9.57
2018-03-30T19:06:39.090Z,6.73
2018-03-30T19:09:04.979Z,8.00
2018-03-30T19:11:30.973Z,7.93
2018-03-30T19:13:56.921Z,7.93
2018-03-30T19:16:22.861Z,8.80
2018-03-30T19:18:48.766Z,9.40
2018-03-30T19:21:14.716Z,8.87
2018-03-30T19:23:40.625Z,8.57
2018-03-30T19:26:06.586Z,10.57
2018-03-30T19:28:32.487Z,8.50
2018-03-30T19:30:58.446Z,13.07
2018-03-30T19:33:24.422Z,12.93
2018-03-30T19:35:50.340Z,11.73
2018-03-30T19:38:16.250Z,11.83
2018-03-30T19:40:42.352Z,13.70
2018-03-30T19:43:08.286Z,10.20
2018-03-30T19:45:34.198Z,10.67
2018-03-30T19:48:00.155Z,10.57
2018-03-30T19:50:26.116Z,11.57
2018-03-30T19:52:52.035Z,9.40
2018-03-30T19:55:17.973Z,8.67
2018-03-30T19:57:43.866Z,8.60
2018-03-30T20:00:09.853Z,9.27
2018-03-30T20:02:35.782Z,9.50
2018-03-30T20:05:01.733Z,8.23
2018-03-30T20:07:27.644Z,9.70
2018-03-30T20:09:53.634Z,8.23
2018-03-30T20:12:19.504Z,8.30
2018-03-30T20:14:45.409Z,8.63
2018-03-30T20:17:11.344Z,12.10
2018-03-30T20:19:37.248Z,8.20
2018-03-30T20:22:03.211Z,7.87
2018-03-30T20:24:29.143Z,6.63
2018-03-30T20:26:55.065Z,7.13
2018-03-30T20:29:21.064Z,8.53
2018-03-30T20:31:46.983Z,9.30
2018-03-30T20:34:12.933Z,6.60
2018-03-30T20:36:38.886Z,5.57
2018-03-30T20:39:04.799Z,6.00
2018-03-30T20:41:30.742Z,5.30
2018-03-30T20:43:56.696Z,6.17
2018-03-30T20:46:22.618Z,6.30
2018-03-30T20:48:48.545Z,6.07
2018-03-30T20:51:14.499Z,6.00
2018-03-30T20:53:40.439Z,11.20
2018-03-30T20:56:06.339Z,6.13
2018-03-30T20:58:32.264Z,6.17
2018-03-30T21:00:58.219Z,7.43
2018-03-30T21:03:24.186Z,6.27
2018-03-30T21:05:50.134Z,6.83
2018-03-30T21:08:16.080Z,7.20
2018-03-30T21:10:42.043Z,7.33
2018-03-30T21:13:07.945Z,7.73
2018-03-30T21:15:33.986Z,7.90
2018-03-30T21:17:59.913Z,7.87
2018-03-30T21:20:25.862Z,6.57
2018-03-30T21:22:51.749Z,7.27
2018-03-30T21:25:17.773Z,8.20
2018-03-30T21:27:43.710Z,7.43
2018-03-30T21:30:09.719Z,9.60
2018-03-30T21:32:35.628Z,7.00
2018-03-30T21:35:01.613Z,7.23
2018-03-30T21:37:27.526Z,6.90
2018-03-30T21:39:53.439Z,6.60
2018-03-30T21:42:19.439Z,6.53
2018-03-30T21:44:45.378Z,6.17
2018-03-30T21:47:11.326Z,7.37
2018-03-30T21:49:37.266Z,6.67
2018-03-30T21:52:03.236Z,6.63
2018-03-30T21:54:29.113Z,6.77
2018-03-30T21:56:55.008Z,6.17
2018-03-30T21:59:20.965Z,6.87
2018-03-30T22:01:46.908Z,6.27
2018-03-30T22:04:12.820Z,5.77
2018-03-30T22:06:38.728Z,7.30
2018-03-30T22:09:04.622Z,6.50
2018-03-30T22:11:30.633Z,5.50
2018-03-30T22:13:56.518Z,5.97
2018-03-30T22:16:22.438Z,5.87
2018-03-30T22:18:48.360Z,6.07
2018-03-30T22:21:14.290Z,5.23
2018-03-30T22:23:40.176Z,5.23
2018-03-30T22:26:06.101Z,5.77
2018-03-30T22:28:32.055Z,5.07
2018-03-30T22:30:58.020Z,5.47
2018-03-30T22:33:24.012Z,5.63
2018-03-30T22:35:49.990Z,5.70
2018-03-30T22:38:15.884Z,6.30
2018-03-30T22:40:41.849Z,5.63
2018-03-30T22:43:07.759Z,7.60
2018-03-30T22:45:33.699Z,5.50
2018-03-30T22:47:59.642Z,6.27
2018-03-30T22:50:25.598Z,5.90
2018-03-30T22:52:51.496Z,5.80
2018-03-30T22:55:17.459Z,5.90
2018-03-30T22:57:43.363Z,6.00
2018-03-30T23:00:09.262Z,6.07
2018-03-30T23:02:35.223Z,5.20
2018-03-30T23:05:01.190Z,4.97
2018-03-30T23:07:27.085Z,6.37
2018-03-30T23:09:53.033Z,6.13
2018-03-30T23:12:18.994Z,6.50
2018-03-30T23:14:44.925Z,8.63
2018-03-30T23:17:10.866Z,6.13
2018-03-30T23:19:36.855Z,6.40
2018-03-30T23:22:02.819Z,6.27
2018-03-30T23:24:28.709Z,7.00
2018-03-30T23:26:54.609Z,6.97
2018-03-30T23:29:20.518Z,6.33
2018-03-30T23:31:46.479Z,6.73
2018-03-30T23:34:12.493Z,6.93
2018-03-30T23:36:38.396Z,6.63
2018-03-30T23:39:04.410Z,6.87
2018-03-30T23:41:30.407Z,7.07
2018-03-30T23:43:56.331Z,8.00
2018-03-30T23:46:22.302Z,7.37
2018-03-30T23:48:48.183Z,7.27
2018-03-30T23:51:14.179Z,10.90
2018-03-30T23:53:40.092Z,7.10
2018-03-30T23:56:06.002Z,8.27
2018-03-30T23:58:31.932Z,7.77
